Time;durP1;ratioP1;P1;durP2;ratioP2;P2;SDS_P1;SDS_P2;PMS_P1;PMS_P2;Temp;Humidity;BMP_temperature;BMP_pressure;BME280_temperature;BME280_humidity;BME280_pressure;Samples;Min_cycle;Max_cycle;Signal;HPM_P1;HPM_P2
2022/04/05 00:00:29;;;;;;;4.28;0.60;;;7.60;99.90;;;;;;5024554;28;20060;-71
2022/04/05 00:02:55;;;;;;;6.68;0.85;;;7.60;99.90;;;;;;5024171;28;20537;-71
2022/04/05 00:05:21;;;;;;;6.28;0.98;;;7.60;99.90;;;;;;5008485;28;20034;-71
2022/04/05 00:07:47;;;;;;;4.68;0.65;;;7.60;99.90;;;;;;5022411;28;20045;-71
2022/04/05 00:10:13;;;;;;;5.53;0.80;;;7.60;99.90;;;;;;5023278;28;20049;-71
2022/04/05 00:12:40;;;;;;;5.35;1.10;;;7.50;99.90;;;;;;5024173;28;20120;-71
2022/04/05 00:15:07;;;;;;;4.30;0.50;;;7.50;99.90;;;;;;5023827;28;20037;-71
2022/04/05 00:17:33;;;;;;;4.25;0.60;;;7.50;99.90;;;;;;5022765;28;20037;-71
2022/04/05 00:19:58;;;;;;;2.88;0.40;;;7.50;99.90;;;;;;5023233;28;20047;-71
2022/04/05 00:22:24;;;;;;;2.78;0.63;;;7.60;99.90;;;;;;5023977;28;20029;-71
2022/04/05 00:24:50;;;;;;;5.13;0.80;;;7.50;99.90;;;;;;5023907;28;20041;-71
2022/04/05 00:27:16;;;;;;;5.15;0.55;;;7.50;99.90;;;;;;5024023;28;20879;-71
2022/04/05 00:29:42;;;;;;;4.95;0.45;;;7.50;99.90;;;;;;5021872;28;20033;-71
2022/04/05 00:32:09;;;;;;;5.75;0.75;;;7.50;99.90;;;;;;5020770;28;20064;-71
2022/04/05 00:34:35;;;;;;;4.95;0.30;;;7.50;99.90;;;;;;5023978;28;20041;-71
2022/04/05 00:37:00;;;;;;;3.00;0.50;;;7.40;99.90;;;;;;5023930;28;20056;-72
2022/04/05 00:39:27;;;;;;;5.22;0.55;;;7.40;99.90;;;;;;5021945;28;20046;-71
2022/04/05 00:41:53;;;;;;;2.83;0.40;;;7.40;99.90;;;;;;5024517;28;20080;-71
2022/04/05 00:44:18;;;;;;;3.42;0.30;;;7.40;99.90;;;;;;5023328;28;20034;-71
2022/04/05 00:46:44;;;;;;;2.83;1.17;;;7.30;99.90;;;;;;5023830;28;20060;-72
2022/04/05 00:49:15;;;;;;;4.82;0.52;;;7.40;99.90;;;;;;5021818;28;20037;-71
2022/04/05 00:51:40;;;;;;;4.75;0.50;;;7.30;99.90;;;;;;5023898;28;20041;-72
2022/04/05 00:54:07;;;;;;;4.43;0.30;;;7.30;99.90;;;;;;5023151;28;20115;-71
2022/04/05 00:56:35;;;;;;;2.13;0.60;;;7.30;99.90;;;;;;5025218;28;20053;-71
2022/04/05 00:59:03;;;;;;;2.03;0.20;;;7.30;99.90;;;;;;5021902;28;20052;-71
2022/04/05 01:01:30;;;;;;;3.33;0.55;;;7.30;99.90;;;;;;5023687;28;20055;-72
2022/04/05 01:03:56;;;;;;;3.47;0.30;;;7.20;99.90;;;;;;5025174;28;20103;-71
2022/04/05 01:06:37;;;;;;;7.25;0.50;;;7.20;99.90;;;;;;5023944;28;20045;-71
2022/04/05 01:09:03;;;;;;;3.90;0.60;;;7.30;99.90;;;;;;5022259;28;20045;-72
2022/04/05 01:11:32;;;;;;;3.53;0.35;;;7.20;99.90;;;;;;5022528;28;20045;-71
2022/04/05 01:13:57;;;;;;;3.83;0.50;;;7.20;99.90;;;;;;5024248;28;20069;-71
2022/04/05 01:16:23;;;;;;;2.80;0.40;;;7.20;99.90;;;;;;5025443;28;20134;-71
2022/04/05 01:18:49;;;;;;;4.65;0.40;;;7.20;99.90;;;;;;5024773;28;20124;-71
2022/04/05 01:21:15;;;;;;;2.88;0.65;;;7.20;99.90;;;;;;5022456;28;20037;-71
2022/04/05 01:24:10;;;;;;;2.90;0.70;;;7.20;99.90;;;;;;5022153;28;20042;-71
2022/04/05 01:26:38;;;;;;;4.57;0.65;;;7.10;99.90;;;;;;5020126;28;20435;-71
2022/04/05 01:29:04;;;;;;;4.40;0.50;;;7.20;99.90;;;;;;5022115;28;20053;-71
2022/04/05 01:31:30;;;;;;;6.20;0.70;;;7.20;99.90;;;;;;5023643;28;20041;-71
2022/04/05 01:33:58;;;;;;;3.75;0.45;;;7.20;99.90;;;;;;5024038;28;20037;-71
2022/04/05 01:36:25;;;;;;;3.97;0.40;;;7.20;99.90;;;;;;5021019;28;20056;-71
2022/04/05 01:38:50;;;;;;;2.30;0.40;;;7.20;99.90;;;;;;5023097;28;20042;-71
2022/04/05 01:41:16;;;;;;;4.78;0.55;;;7.10;99.90;;;;;;5020702;28;20087;-71
2022/04/05 01:43:41;;;;;;;4.88;0.68;;;7.20;99.90;;;;;;5021395;28;20045;-71
2022/04/05 01:46:07;;;;;;;6.38;0.52;;;7.10;99.90;;;;;;5022151;28;20048;-71
2022/04/05 01:48:32;;;;;;;3.92;0.40;;;7.10;99.90;;;;;;5021530;28;20041;-71
2022/04/05 01:50:58;;;;;;;6.38;0.95;;;7.10;99.90;;;;;;5023061;28;20045;-71
2022/04/05 01:53:24;;;;;;;3.15;0.65;;;7.10;99.90;;;;;;5021561;28;20419;-71
2022/04/05 01:55:49;;;;;;;3.38;0.50;;;7.10;99.90;;;;;;5020173;28;20051;-71
2022/04/05 01:58:15;;;;;;;4.35;0.90;;;7.10;99.90;;;;;;5020908;28;20069;-71
2022/04/05 02:00:40;;;;;;;5.45;0.70;;;7.10;99.90;;;;;;5022146;28;20041;-72
2022/04/05 02:03:07;;;;;;;4.80;0.70;;;6.90;99.90;;;;;;5023504;28;20037;-71
2022/04/05 02:05:32;;;;;;;5.88;0.90;;;7.10;99.90;;;;;;5022836;28;20049;-71
2022/04/05 02:07:58;;;;;;;5.05;1.00;;;7.10;99.90;;;;;;5021490;28;20519;-71
2022/04/05 02:10:23;;;;;;;4.45;0.70;;;7.10;99.90;;;;;;5023656;28;20515;-71
2022/04/05 02:12:52;;;;;;;6.97;0.68;;;7.10;99.90;;;;;;5038850;28;20033;-72
2022/04/05 02:15:18;;;;;;;5.70;0.80;;;7.10;99.90;;;;;;5021301;28;20045;-71
2022/04/05 02:17:44;;;;;;;3.83;0.60;;;7.10;99.90;;;;;;5021058;28;20052;-71
2022/04/05 02:20:10;;;;;;;6.38;0.95;;;7.10;99.90;;;;;;5024370;28;20131;-71
2022/04/05 02:22:35;;;;;;;4.05;0.80;;;7.10;99.90;;;;;;5017998;28;20049;-71
2022/04/05 02:25:03;;;;;;;4.93;0.70;;;7.10;99.90;;;;;;5019418;28;20041;-71
2022/04/05 02:27:29;;;;;;;8.27;1.48;;;7.10;99.90;;;;;;5024689;28;20487;-71
2022/04/05 02:29:55;;;;;;;5.30;0.82;;;7.10;99.90;;;;;;5025080;28;20103;-71
2022/04/05 02:32:20;;;;;;;3.80;0.65;;;7.10;99.90;;;;;;5021586;28;20514;-71
2022/04/05 02:34:46;;;;;;;5.50;2.15;;;7.20;99.90;;;;;;5021308;28;20391;-71
2022/04/05 02:37:11;;;;;;;7.65;0.70;;;7.10;99.90;;;;;;5023716;28;20172;-71
2022/04/05 02:39:37;;;;;;;5.35;0.68;;;7.10;99.90;;;;;;5025828;28;20041;-71
2022/04/05 02:42:03;;;;;;;6.10;0.90;;;7.10;99.90;;;;;;5026022;28;20041;-71
2022/04/05 02:44:28;;;;;;;3.00;0.80;;;7.10;99.90;;;;;;5026076;28;20045;-71
2022/04/05 02:46:54;;;;;;;7.35;0.90;;;7.10;99.90;;;;;;5026784;28;20041;-71
2022/04/05 02:49:20;;;;;;;5.50;0.70;;;7.10;99.90;;;;;;5026108;28;20037;-71
2022/04/05 02:51:45;;;;;;;4.10;0.60;;;7.10;99.90;;;;;;5025565;28;20045;-71
2022/04/05 02:54:11;;;;;;;6.85;0.85;;;7.10;99.90;;;;;;5028124;28;20042;-71
2022/04/05 02:56:36;;;;;;;6.18;0.60;;;7.20;99.90;;;;;;5024211;28;20041;-71
2022/04/05 02:59:02;;;;;;;5.93;1.00;;;7.10;99.90;;;;;;5025151;28;20179;-72
2022/04/05 03:01:28;;;;;;;6.05;0.75;;;7.20;99.90;;;;;;5026782;28;20038;-70
2022/04/05 03:03:53;;;;;;;6.30;0.98;;;7.20;99.90;;;;;;5027588;28;20436;-71
2022/04/05 03:06:19;;;;;;;4.18;0.85;;;7.10;99.90;;;;;;5023524;28;20196;-71
2022/04/05 03:08:45;;;;;;;6.25;0.80;;;7.10;99.90;;;;;;5027143;28;20194;-71
2022/04/05 03:11:11;;;;;;;4.88;0.63;;;7.10;99.90;;;;;;5021868;28;20119;-71
2022/04/05 03:13:36;;;;;;;8.07;1.60;;;7.20;99.90;;;;;;5025375;28;20081;-71
2022/04/05 03:16:02;;;;;;;4.25;0.90;;;7.20;99.90;;;;;;5028096;28;20087;-71
2022/04/05 03:18:28;;;;;;;3.83;0.80;;;7.20;99.90;;;;;;5024621;28;20042;-71
2022/04/05 03:20:54;;;;;;;6.22;1.15;;;7.20;99.90;;;;;;5024025;28;20133;-71
2022/04/05 03:23:21;;;;;;;3.63;0.90;;;7.20;99.90;;;;;;5026121;28;21193;-71
2022/04/05 03:25:48;;;;;;;5.82;1.00;;;7.20;99.90;;;;;;5023474;28;20046;-70
2022/04/05 03:28:13;;;;;;;5.30;0.80;;;7.20;99.90;;;;;;5025744;28;20052;-71
2022/04/05 03:30:39;;;;;;;4.93;0.70;;;7.20;99.90;;;;;;5024021;28;20389;-71
2022/04/05 03:33:05;;;;;;;6.00;0.98;;;7.20;99.90;;;;;;5024779;28;20088;-71
2022/04/05 03:35:30;;;;;;;3.85;0.90;;;7.20;99.90;;;;;;5023089;28;20486;-71
2022/04/05 03:37:56;;;;;;;4.30;1.00;;;7.20;99.90;;;;;;5025908;28;20045;-71
2022/04/05 03:40:21;;;;;;;3.60;0.93;;;7.10;99.90;;;;;;5025703;28;20117;-71
2022/04/05 03:42:47;;;;;;;3.83;0.80;;;7.20;99.90;;;;;;5023870;28;20543;-71
2022/04/05 03:45:13;;;;;;;10.75;1.15;;;7.20;99.90;;;;;;5022786;28;20113;-71
2022/04/05 03:47:38;;;;;;;8.35;1.08;;;7.30;99.90;;;;;;5025442;28;20049;-71
2022/04/05 03:50:04;;;;;;;7.38;1.05;;;7.20;99.90;;;;;;5025190;28;20758;-71
2022/04/05 03:52:30;;;;;;;5.53;0.90;;;7.20;99.90;;;;;;5023616;28;20144;-71
2022/04/05 03:54:56;;;;;;;7.97;1.00;;;7.30;99.90;;;;;;5026796;28;20180;-71
2022/04/05 03:57:21;;;;;;;9.07;1.95;;;7.20;99.90;;;;;;5023795;28;20038;-71
2022/04/05 03:59:47;;;;;;;7.35;1.00;;;7.20;99.90;;;;;;5020917;28;20045;-71
2022/04/05 04:02:13;;;;;;;7.93;1.80;;;7.20;99.90;;;;;;5021229;28;20071;-71
2022/04/05 04:04:38;;;;;;;5.88;1.25;;;7.20;99.90;;;;;;5026325;28;20049;-71
2022/04/05 04:07:04;;;;;;;6.97;1.52;;;7.20;99.90;;;;;;5024347;28;20041;-71
2022/04/05 04:09:30;;;;;;;8.10;1.23;;;7.20;99.90;;;;;;5025015;28;20562;-71
2022/04/05 04:11:56;;;;;;;7.95;1.33;;;7.20;99.90;;;;;;5024201;28;20055;-71
2022/04/05 04:14:22;;;;;;;8.32;1.08;;;7.20;99.90;;;;;;5025934;28;20042;-71
2022/04/05 04:16:48;;;;;;;9.88;1.70;;;7.30;99.90;;;;;;5024262;28;20087;-71
2022/04/05 04:19:13;;;;;;;9.70;2.03;;;7.20;99.90;;;;;;5023926;28;20080;-71
2022/04/05 04:21:39;;;;;;;12.57;1.55;;;7.30;99.90;;;;;;5022563;28;20057;-71
2022/04/05 04:24:05;;;;;;;9.50;1.25;;;7.20;99.90;;;;;;5021918;28;20041;-71
2022/04/05 04:26:30;;;;;;;11.50;1.60;;;7.20;99.90;;;;;;5026915;28;20033;-71
2022/04/05 04:29:00;;;;;;;7.07;1.13;;;7.30;99.90;;;;;;5023998;28;20136;-71
2022/04/05 04:31:26;;;;;;;14.73;1.95;;;7.30;99.90;;;;;;5022106;28;20392;-71
2022/04/05 04:33:52;;;;;;;3.45;1.30;;;7.20;99.90;;;;;;5023189;28;20041;-71
2022/04/05 04:36:18;;;;;;;10.27;1.90;;;7.20;99.90;;;;;;5022102;28;20128;-71
2022/04/05 04:38:43;;;;;;;11.80;1.60;;;7.30;99.90;;;;;;5022177;28;20062;-71
2022/04/05 04:41:09;;;;;;;10.27;1.83;;;7.20;99.90;;;;;;5024011;28;20036;-71
2022/04/05 04:43:35;;;;;;;7.63;1.52;;;7.30;99.90;;;;;;5024400;28;20058;-71
2022/04/05 04:46:01;;;;;;;5.45;1.40;;;7.20;99.90;;;;;;5024149;28;20478;-71
2022/04/05 04:48:27;;;;;;;9.20;2.00;;;7.20;99.90;;;;;;5024668;28;20399;-71
2022/04/05 04:50:53;;;;;;;5.75;1.27;;;7.20;99.90;;;;;;5023317;28;20091;-71
2022/04/05 04:53:19;;;;;;;5.22;1.20;;;7.30;99.90;;;;;;5022188;28;20049;-70
2022/04/05 04:55:44;;;;;;;5.90;1.35;;;7.10;99.90;;;;;;5022134;28;20056;-72
2022/04/05 04:58:10;;;;;;;8.13;1.20;;;7.20;99.90;;;;;;5025695;28;20049;-71
2022/04/05 05:00:36;;;;;;;6.93;1.25;;;7.20;99.90;;;;;;5022502;28;20037;-71
2022/04/05 05:03:01;;;;;;;7.43;1.35;;;7.20;99.90;;;;;;5020823;28;20029;-71
2022/04/05 05:05:27;;;;;;;7.90;1.23;;;7.20;99.90;;;;;;5025066;28;20063;-71
2022/04/05 05:07:53;;;;;;;3.92;0.82;;;7.20;99.90;;;;;;5020800;28;20041;-71
2022/04/05 05:10:21;;;;;;;6.07;1.00;;;7.20;99.90;;;;;;5023915;28;20036;-71
2022/04/05 05:12:47;;;;;;;6.35;1.45;;;7.20;99.90;;;;;;5025722;28;20072;-71
2022/04/05 05:15:18;;;;;;;4.40;0.93;;;7.20;99.90;;;;;;5024038;28;20099;-71
2022/04/05 05:17:44;;;;;;;12.60;1.00;;;7.20;99.90;;;;;;5025334;28;20049;-71
2022/04/05 05:20:11;;;;;;;6.18;1.13;;;7.20;99.90;;;;;;5020979;28;20087;-71
2022/04/05 05:22:37;;;;;;;10.27;1.10;;;7.20;99.90;;;;;;5025089;28;20041;-71
2022/04/05 05:25:03;;;;;;;8.60;1.20;;;7.20;99.90;;;;;;5023166;28;20387;-71
2022/04/05 05:27:30;;;;;;;6.40;1.52;;;7.20;99.90;;;;;;5024617;28;20061;-71
2022/04/05 05:29:55;;;;;;;9.40;1.13;;;7.10;99.90;;;;;;5022637;28;20411;-71
2022/04/05 05:32:21;;;;;;;4.63;0.88;;;7.20;99.90;;;;;;5023379;28;20089;-72
2022/04/05 05:34:47;;;;;;;3.47;0.93;;;7.20;99.90;;;;;;5023504;28;20552;-71
2022/04/05 05:37:13;;;;;;;4.90;1.00;;;7.20;99.90;;;;;;5025357;28;20041;-72
2022/04/05 05:39:39;;;;;;;3.50;1.02;;;7.30;99.90;;;;;;5024279;28;20404;-71
2022/04/05 05:42:06;;;;;;;4.57;1.10;;;7.30;99.90;;;;;;5023383;28;20145;-72
2022/04/05 05:44:32;;;;;;;5.97;1.15;;;7.30;99.90;;;;;;5021491;28;20085;-71
2022/04/05 05:46:57;;;;;;;6.95;1.20;;;7.30;99.90;;;;;;5026401;28;20478;-71
2022/04/05 05:49:23;;;;;;;4.40;1.00;;;7.30;99.90;;;;;;5025930;28;20049;-71
2022/04/05 05:51:49;;;;;;;9.25;1.30;;;7.30;99.90;;;;;;5021830;28;20057;-71
2022/04/05 05:54:16;;;;;;;5.60;1.13;;;7.40;99.90;;;;;;5019893;28;20038;-71
2022/04/05 05:56:42;;;;;;;7.10;1.42;;;7.40;99.90;;;;;;5024190;28;20124;-72
2022/04/05 05:59:09;;;;;;;3.95;0.85;;;7.40;99.90;;;;;;5023685;28;20128;-72
2022/04/05 06:01:35;;;;;;;4.53;0.63;;;7.40;99.90;;;;;;5021244;28;20507;-72
2022/04/05 06:04:00;;;;;;;8.27;1.13;;;7.60;99.90;;;;;;5023224;28;20057;-73
2022/04/05 06:06:28;;;;;;;6.03;1.10;;;7.50;99.90;;;;;;5022158;28;20435;-72
2022/04/05 06:08:55;;;;;;;8.57;1.30;;;7.50;99.90;;;;;;5021086;28;20129;-72
2022/04/05 06:11:20;;;;;;;5.00;0.98;;;7.50;99.90;;;;;;5021866;28;20065;-72
2022/04/05 06:13:46;;;;;;;9.65;1.65;;;7.50;99.90;;;;;;5020368;28;20075;-71
2022/04/05 06:16:14;;;;;;;5.28;1.25;;;7.50;99.90;;;;;;5022984;28;20045;-72
2022/04/05 06:18:39;;;;;;;4.75;0.90;;;7.60;99.90;;;;;;5022032;28;20120;-72
2022/04/05 06:21:05;;;;;;;4.53;1.02;;;7.60;99.90;;;;;;5023424;28;20117;-70
2022/04/05 06:23:31;;;;;;;4.38;0.52;;;7.60;99.90;;;;;;5017990;28;20033;-70
2022/04/05 06:25:56;;;;;;;4.65;0.80;;;7.60;99.90;;;;;;5021136;28;20088;-70
2022/04/05 06:28:22;;;;;;;6.85;1.00;;;7.60;99.90;;;;;;5018555;28;20096;-70
2022/04/05 06:30:48;;;;;;;4.85;1.02;;;7.60;99.90;;;;;;5017699;28;20052;-70
2022/04/05 06:33:19;;;;;;;5.55;0.80;;;7.60;99.90;;;;;;5019530;28;20042;-70
2022/04/05 06:35:48;;;;;;;5.57;0.90;;;7.70;99.90;;;;;;5019054;28;20049;-70
2022/04/05 06:38:14;;;;;;;4.43;0.90;;;7.70;99.90;;;;;;5020129;28;20108;-71
2022/04/05 06:40:43;;;;;;;6.53;0.85;;;7.70;99.90;;;;;;5020703;28;20103;-70
2022/04/05 06:43:10;;;;;;;5.22;0.80;;;7.70;99.90;;;;;;5024424;28;20041;-70
2022/04/05 06:45:36;;;;;;;3.85;0.70;;;7.80;99.90;;;;;;5021728;28;20046;-71
2022/04/05 06:48:03;;;;;;;7.55;0.70;;;7.80;99.90;;;;;;5020639;28;20057;-70
2022/04/05 06:50:28;;;;;;;3.58;0.50;;;7.90;99.90;;;;;;5020857;28;20048;-70
2022/04/05 06:52:57;;;;;;;5.30;0.57;;;8.00;99.90;;;;;;5022863;28;20038;-71
2022/04/05 06:55:24;;;;;;;4.30;0.75;;;8.10;99.90;;;;;;5022608;28;20485;-70
2022/04/05 06:57:50;;;;;;;3.38;0.52;;;8.20;99.90;;;;;;5023676;28;20104;-70
2022/04/05 07:00:18;;;;;;;5.60;0.60;;;8.30;99.90;;;;;;5020666;28;20078;-70
2022/04/05 07:02:44;;;;;;;1.67;0.30;;;8.40;99.90;;;;;;5021276;28;20059;-70
2022/04/05 07:05:09;;;;;;;3.60;0.55;;;8.40;99.90;;;;;;5021878;28;20055;-71
2022/04/05 07:07:37;;;;;;;2.78;0.55;;;8.40;99.90;;;;;;5019124;28;20042;-70
2022/04/05 07:10:03;;;;;;;3.30;0.40;;;8.40;99.90;;;;;;5021108;28;20065;-70
2022/04/05 07:12:30;;;;;;;8.77;1.23;;;8.40;99.90;;;;;;5020190;28;20049;-71
2022/04/05 07:14:56;;;;;;;3.88;0.40;;;8.50;99.90;;;;;;5018792;28;20045;-71
2022/04/05 07:17:21;;;;;;;5.63;0.65;;;8.50;99.90;;;;;;5021503;28;20488;-70
2022/04/05 07:19:47;;;;;;;4.65;0.30;;;8.50;99.90;;;;;;5023389;28;20041;-70
2022/04/05 07:22:12;;;;;;;3.85;0.52;;;8.40;99.90;;;;;;5019776;28;20052;-70
2022/04/05 07:24:38;;;;;;;6.07;0.90;;;8.50;99.90;;;;;;5022444;28;20502;-71
2022/04/05 07:27:04;;;;;;;3.38;0.30;;;8.50;99.90;;;;;;5022340;28;20048;-70
2022/04/05 07:29:29;;;;;;;2.33;0.55;;;8.50;99.90;;;;;;5024973;28;20045;-71
2022/04/05 07:31:55;;;;;;;3.33;0.90;;;8.50;99.90;;;;;;5023568;28;20046;-71
2022/04/05 07:34:21;;;;;;;2.47;0.45;;;8.60;99.90;;;;;;5024021;28;20033;-71
2022/04/05 07:36:47;;;;;;;2.22;0.40;;;8.70;99.90;;;;;;5023404;28;20140;-71
2022/04/05 07:39:12;;;;;;;3.67;0.93;;;8.70;99.90;;;;;;5024696;28;20507;-70
2022/04/05 07:41:39;;;;;;;4.50;0.50;;;8.90;99.90;;;;;;5024648;28;20033;-71
2022/04/05 07:44:05;;;;;;;2.25;0.47;;;8.90;99.90;;;;;;5023825;28;20052;-71
2022/04/05 07:46:31;;;;;;;2.10;0.80;;;9.00;99.90;;;;;;5022217;28;20091;-71
2022/04/05 07:48:56;;;;;;;2.60;0.32;;;9.00;99.90;;;;;;5027765;28;20470;-71
2022/04/05 07:51:22;;;;;;;3.58;0.38;;;9.00;99.90;;;;;;5023385;28;20037;-71
2022/04/05 07:53:48;;;;;;;5.43;1.17;;;9.00;99.90;;;;;;5024333;28;20041;-71
2022/04/05 07:56:14;;;;;;;2.85;0.40;;;8.90;99.90;;;;;;5026307;28;20049;-71
2022/04/05 07:58:40;;;;;;;4.75;0.40;;;9.00;99.90;;;;;;5023851;28;20041;-71
2022/04/05 08:01:08;;;;;;;3.03;0.60;;;9.00;99.90;;;;;;5025729;28;20108;-71
2022/04/05 08:03:34;;;;;;;5.05;0.50;;;9.00;99.90;;;;;;5024665;28;20103;-71
2022/04/05 08:06:00;;;;;;;2.50;0.50;;;9.00;99.90;;;;;;5024479;28;20369;-71
2022/04/05 08:08:26;;;;;;;3.60;0.45;;;9.00;99.90;;;;;;5022173;28;20048;-71
2022/04/05 08:10:51;;;;;;;2.75;0.63;;;9.10;99.90;;;;;;5020970;28;20045;-71
2022/04/05 08:13:17;;;;;;;2.92;0.60;;;9.10;99.90;;;;;;5021912;28;20087;-71
2022/04/05 08:15:43;;;;;;;4.38;0.70;;;9.20;99.90;;;;;;5022388;28;20052;-71
2022/04/05 08:18:09;;;;;;;1.48;0.60;;;9.30;99.90;;;;;;5023136;28;20041;-71
2022/04/05 08:20:36;;;;;;;3.58;0.55;;;9.40;99.90;;;;;;5026829;28;20047;-71
2022/04/05 08:23:03;;;;;;;2.38;0.70;;;9.50;99.90;;;;;;5025424;28;20057;-71
2022/04/05 08:25:29;;;;;;;3.40;0.65;;;9.50;99.90;;;;;;5024468;28;20053;-71
2022/04/05 08:27:55;;;;;;;2.47;0.50;;;9.50;99.90;;;;;;5028753;28;20037;-71
2022/04/05 08:30:21;;;;;;;3.17;0.30;;;9.50;99.90;;;;;;5027416;28;20656;-71
2022/04/05 08:32:48;;;;;;;5.93;0.90;;;9.50;99.90;;;;;;5023508;28;20045;-71
2022/04/05 08:35:16;;;;;;;3.13;0.60;;;9.50;99.90;;;;;;5025300;28;20484;-71
2022/04/05 08:37:43;;;;;;;3.35;0.40;;;9.50;99.90;;;;;;5022162;28;20057;-71
2022/04/05 08:40:10;;;;;;;2.30;0.40;;;9.50;99.90;;;;;;5021967;28;20116;-71
2022/04/05 08:42:38;;;;;;;2.58;0.43;;;9.50;99.90;;;;;;5022670;28;20381;-71
2022/04/05 08:45:10;;;;;;;2.42;0.45;;;9.50;99.90;;;;;;5005368;28;20065;-71
2022/04/05 08:47:38;;;;;;;2.03;0.30;;;9.40;99.90;;;;;;5025348;28;21332;-71
2022/04/05 08:50:05;;;;;;;2.08;0.38;;;9.40;99.90;;;;;;5024190;28;20041;-71
2022/04/05 08:52:31;;;;;;;2.85;0.50;;;9.50;99.90;;;;;;5023744;28;20065;-71
2022/04/05 08:54:57;;;;;;;2.75;0.35;;;9.50;99.90;;;;;;5024490;28;20038;-70
2022/04/05 08:57:22;;;;;;;1.92;0.35;;;9.50;99.90;;;;;;5021159;28;20037;-71
2022/04/05 08:59:48;;;;;;;2.90;0.57;;;9.50;99.90;;;;;;5023854;28;20037;-71
2022/04/05 09:02:23;;;;;;;2.10;0.20;;;9.50;99.90;;;;;;5022833;28;20132;-71
2022/04/05 09:04:49;;;;;;;3.40;0.60;;;9.60;99.90;;;;;;5008359;28;20049;-71
2022/04/05 09:07:28;;;;;;;2.17;0.28;;;9.60;99.90;;;;;;5027120;28;20036;-71
2022/04/05 09:10:07;;;;;;;2.33;0.50;;;9.60;99.90;;;;;;5023332;28;20500;-71
2022/04/05 09:12:46;;;;;;;1.98;0.30;;;9.50;99.90;;;;;;5025562;28;20041;-71
2022/04/05 09:15:21;;;;;;;1.38;0.25;;;9.50;99.90;;;;;;5009974;28;20107;-71
2022/04/05 09:17:48;;;;;;;1.70;0.20;;;9.50;99.90;;;;;;5025011;28;20052;-71
2022/04/05 09:20:17;;;;;;;1.90;0.30;;;9.60;99.90;;;;;;5022738;28;20052;-71
2022/04/05 09:22:43;;;;;;;1.95;0.20;;;9.60;99.90;;;;;;5022489;28;20092;-71
2022/04/05 09:25:11;;;;;;;0.60;0.20;;;9.60;99.90;;;;;;5003634;28;20472;-71
2022/04/05 09:27:54;;;;;;;0.40;0.20;;;9.60;99.90;;;;;;5019429;28;20038;-71
2022/04/05 09:30:24;;;;;;;1.15;0.20;;;9.60;99.90;;;;;;5020612;28;20039;-71
2022/04/05 09:32:51;;;;;;;1.20;0.20;;;9.70;99.90;;;;;;5023393;28;20045;-71
2022/04/05 09:35:20;;;;;;;1.05;0.20;;;9.70;99.90;;;;;;5022345;28;20092;-71
2022/04/05 09:37:47;;;;;;;0.90;0.10;;;9.80;99.90;;;;;;5020533;28;20045;-71
2022/04/05 09:40:24;;;;;;;0.90;0.10;;;9.90;99.90;;;;;;5025066;28;20364;-71
2022/04/05 09:43:05;;;;;;;1.55;0.20;;;9.90;99.90;;;;;;5022143;28;20100;-71
2022/04/05 09:45:59;;;;;;;0.80;0.10;;;10.00;99.90;;;;;;5015020;28;20101;-71
2022/04/05 09:48:30;;;;;;;0.95;0.20;;;10.10;99.90;;;;;;5021275;28;20045;-71
2022/04/05 09:51:10;;;;;;;0.60;0.10;;;10.10;99.90;;;;;;5022447;28;20130;-71
2022/04/05 09:53:39;;;;;;;0.57;0.20;;;10.10;99.90;;;;;;5021618;28;20089;-71
2022/04/05 09:56:10;;;;;;;0.50;0.20;;;10.10;99.90;;;;;;5022502;28;20081;-71
2022/04/05 09:58:42;;;;;;;1.02;0.15;;;10.10;99.90;;;;;;5019941;28;20510;-71
2022/04/05 10:01:08;;;;;;;1.10;0.20;;;10.10;99.90;;;;;;5019612;28;20084;-71
2022/04/05 10:03:59;;;;;;;0.52;0.20;;;10.10;99.90;;;;;;5021900;28;20472;-70
2022/04/05 10:06:26;;;;;;;2.15;0.20;;;10.20;99.90;;;;;;5024657;28;20043;-70
2022/04/05 10:08:55;;;;;;;0.85;0.20;;;10.10;99.90;;;;;;5073988;22;20056;-81
2022/04/05 10:11:26;;;;;;;0.40;0.30;;;10.10;99.90;;;;;;5049324;28;20070;-82
2022/04/05 10:13:57;;;;;;;1.65;0.25;;;10.10;99.90;;;;;;5080854;28;20052;-80
2022/04/05 10:16:31;;;;;;;0.55;0.40;;;10.10;99.90;;;;;;5082730;28;20049;-82
2022/04/05 10:19:05;;;;;;;0.70;0.40;;;10.50;99.90;;;;;;5066463;28;20076;-81
2022/04/05 10:21:41;;;;;;;0.50;0.50;;;10.10;99.90;;;;;;5084369;28;20388;-82
2022/04/05 10:24:11;;;;;;;0.85;0.50;;;10.80;99.90;;;;;;5101709;28;20399;-82
2022/04/05 10:26:50;;;;;;;1.25;1.00;;;10.10;99.90;;;;;;5085285;28;20497;-82
2022/04/05 10:29:19;;;;;;;1.10;0.90;;;10.10;99.90;;;;;;5087220;28;20554;-82
2022/04/05 10:32:36;;;;;;;1.33;1.20;;;10.60;99.90;;;;;;5085507;28;20044;-81
2022/04/05 10:35:10;;;;;;;1.90;1.20;;;10.10;99.90;;;;;;5083767;28;20546;-81
2022/04/05 10:37:40;;;;;;;1.25;1.15;;;10.10;99.90;;;;;;5085440;28;20043;-81
2022/04/05 10:40:07;;;;;;;1.67;1.30;;;10.40;99.90;;;;;;5085006;28;20059;-82
2022/04/05 10:42:44;;;;;;;1.73;1.58;;;10.30;99.90;;;;;;5088424;28;20469;-81
2022/04/05 10:45:21;;;;;;;7.18;2.35;;;10.30;99.90;;;;;;5068185;28;20056;-82
2022/04/05 10:48:18;;;;;;;1.80;1.70;;;10.40;99.90;;;;;;5086777;28;20074;-82
2022/04/05 10:51:15;;;;;;;;;;;;;;;;;;;;;
2022/04/05 10:54:36;;;;;;;1.58;1.48;;;10.70;99.90;;;;;;5083467;28;20531;-82
2022/04/05 10:57:40;;;;;;;2.03;1.70;;;10.60;99.90;;;;;;5086537;28;20048;-82
2022/04/05 11:00:14;;;;;;;1.52;1.30;;;11.00;99.90;;;;;;5069856;28;20048;-82
2022/04/05 11:02:47;;;;;;;2.03;1.63;;;11.10;99.90;;;;;;5086968;28;20044;-82
2022/04/05 11:05:37;;;;;;;2.00;1.80;;;11.20;99.90;;;;;;5089654;28;20044;-82
2022/04/05 11:07:58;;;;;;;2.03;1.15;;;12.00;99.90;;;;;;5086745;28;20044;-81
2022/04/05 11:10:28;;;;;;;2.83;1.42;;;11.80;99.90;;;;;;5089615;28;20032;-82
2022/04/05 11:13:22;;;;;;;1.77;1.67;;;11.70;99.90;;;;;;5067001;28;20040;-82
2022/04/05 11:15:51;;;;;;;1.70;1.58;;;11.90;99.90;;;;;;5070876;28;20043;-82
2022/04/05 11:18:21;;;;;;;1.75;1.65;;;12.10;99.90;;;;;;5085936;28;20048;-83
2022/04/05 11:20:49;;;;;;;1.73;1.60;;;12.80;99.90;;;;;;5087751;28;20036;-83
2022/04/05 11:23:25;;;;;;;1.60;1.02;;;12.30;99.90;;;;;;5085283;28;20996;-83
2022/04/05 11:26:07;;;;;;;;;;;;;;;;;;;;;
2022/04/05 11:28:50;;;;;;;2.53;1.80;;;12.80;99.90;;;;;;5069034;28;20082;-82
2022/04/05 11:31:39;;;;;;;1.48;1.30;;;12.50;99.90;;;;;;5086049;28;20032;-81
2022/04/05 11:34:53;;;;;;;1.40;1.30;;;12.40;99.90;;;;;;5085817;28;20047;-82
2022/04/05 11:37:34;;;;;;;1.92;1.67;;;12.30;99.90;;;;;;5068980;28;20806;-82
2022/04/05 11:40:01;;;;;;;3.38;1.30;;;12.50;99.90;;;;;;5051053;28;20092;-82
2022/04/05 11:42:38;;;;;;;1.25;1.15;;;12.30;99.90;;;;;;5071858;28;20528;-82
2022/04/05 11:45:12;;;;;;;1.20;1.05;;;12.50;99.90;;;;;;5084579;28;20865;-83
2022/04/05 11:47:46;;;;;;;1.90;1.30;;;12.30;99.90;;;;;;5082350;28;20055;-82
2022/04/05 11:50:22;;;;;;;;;;;;;;;;;;;;;
2022/04/05 11:59:07;;;;;;;2.00;1.70;;;12.00;99.90;;;;;;5043707;28;20053;-83
2022/04/05 12:02:14;;;;;;;4.28;2.35;;;12.00;99.90;;;;;;5045158;28;20443;-83
2022/04/05 12:04:54;;;;;;;3.05;2.60;;;12.10;99.90;;;;;;5045465;28;20106;-83
2022/04/05 12:07:20;;;;;;;3.33;3.00;;;12.30;99.90;;;;;;4994334;28;20046;-81
2022/04/05 12:09:46;;;;;;;3.60;3.10;;;12.60;99.90;;;;;;4998675;28;20231;-83
2022/04/05 12:12:12;;;;;;;2.97;2.65;;;12.60;99.90;;;;;;5024906;28;20037;-83
2022/04/05 12:14:38;;;;;;;4.50;3.17;;;12.70;99.90;;;;;;5041112;28;20065;-82
2022/04/05 12:17:05;;;;;;;4.32;2.65;;;12.70;99.90;;;;;;5024010;28;20266;-82
2022/04/05 12:19:41;;;;;;;5.35;2.85;;;12.80;99.90;;;;;;5021750;28;20065;-81
2022/04/05 12:22:16;;;;;;;5.45;2.72;;;12.80;99.90;;;;;;5022961;28;20511;-83
2022/04/05 12:24:50;;;;;;;3.47;2.10;;;12.70;99.90;;;;;;5028487;28;20045;-82
2022/04/05 12:27:30;;;;;;;5.93;2.70;;;12.60;99.90;;;;;;5028332;28;20122;-81
2022/04/05 12:29:58;;;;;;;3.75;2.60;;;12.40;99.90;;;;;;5027884;28;20037;-81
2022/04/05 12:32:40;;;;;;;8.23;3.22;;;12.40;99.90;;;;;;5010787;28;20056;-81
2022/04/05 12:35:42;;;;;;;6.65;2.85;;;12.30;99.90;;;;;;5025768;28;20040;-82
2022/04/05 12:38:37;;;;;;;5.20;2.67;;;12.30;99.90;;;;;;5046085;28;20049;-81
2022/04/05 12:41:16;;;;;;;7.35;2.45;;;11.90;99.90;;;;;;5028748;28;21300;-81
2022/04/05 12:43:46;;;;;;;3.78;2.15;;;12.00;99.90;;;;;;5027099;28;20088;-81
2022/04/05 12:46:13;;;;;;;7.22;2.42;;;11.90;99.90;;;;;;5029179;28;20038;-81
2022/04/05 12:48:47;;;;;;;4.60;2.35;;;12.20;99.90;;;;;;5029377;28;20038;-81
2022/04/05 12:51:49;;;;;;;3.50;2.10;;;11.70;99.90;;;;;;5027039;28;20041;-81
2022/04/05 12:54:32;;;;;;;2.92;1.95;;;11.90;99.90;;;;;;5024081;28;20061;-81
2022/04/05 12:57:32;;;;;;;6.30;2.33;;;11.60;99.90;;;;;;5022789;28;20498;-80
2022/04/05 13:00:30;;;;;;;5.22;2.50;;;11.60;99.90;;;;;;4952315;28;20055;-81
2022/04/05 13:03:22;;;;;;;;;;;;;;;;;;;;;
2022/04/05 13:06:20;;;;;;;7.40;2.80;;;11.50;99.90;;;;;;5019044;28;20045;-82
2022/04/05 13:08:57;;;;;;;7.30;3.17;;;11.60;99.90;;;;;;5028435;28;20060;-81
2022/04/05 13:11:32;;;;;;;6.18;2.92;;;11.60;99.90;;;;;;5047148;28;20132;-82
2022/04/05 13:14:15;;;;;;;6.47;3.50;;;11.50;99.90;;;;;;5024978;28;20065;-82
2022/04/05 13:17:08;;;;;;;8.38;4.10;;;11.20;99.90;;;;;;5029472;28;20045;-83